Terminal Aerodrome Forecast
Issued by NWS Burlington, VT

Home | Current Version | Previous Version | Text Only | Print | Product List | Glossary On
Versions: 1 2 3 4 5 6 7 8 9 10 11 12 13 14 15 16
000
FTUS41 KBTV 242330 AAC
TAFBTV
TAF AMD
KBTV 242330Z 2500/2524 20009KT 6SM -RA BR OVC025
      TEMPO 2500/2504 2SM -RASN BR OVC015
     FM250400 25005KT 3SM BR VCSH SCT008 BKN012 OVC025
     FM250600 35004KT 3SM BR BKN008 OVC015
     FM251300 36007KT P6SM OVC025
     FM251600 35007KT P6SM BKN035=

USA.gov is the U.S. government's official web portal to all federal, state and local government web resources and services.